Time;durP1;ratioP1;P1;durP2;ratioP2;P2;SDS_P1;SDS_P2;PMS_P1;PMS_P2;Temp;Humidity;BMP_temperature;BMP_pressure;BME280_temperature;BME280_humidity;BME280_pressure;Samples;Min_cycle;Max_cycle;Signal;HPM_P1;HPM_P2
2021/05/02 00:00:44;;;;;;;12.95;9.07;;;;;;;-150.07;50.26;54951.16;4940810;28;20034;-88
2021/05/02 00:03:11;;;;;;;12.20;8.15;;;;;;;-150.07;50.85;54951.16;4958422;28;20484;-92
2021/05/02 00:05:46;;;;;;;12.82;7.85;;;;;;;-150.07;50.00;54949.06;4966936;28;20069;-91
2021/05/02 00:08:13;;;;;;;14.15;8.55;;;;;;;-150.07;50.26;54949.06;4960696;28;20034;-94
2021/05/02 00:10:45;;;;;;;23.35;9.18;;;;;;;-150.07;49.99;54951.16;4979068;28;20069;-96
2021/05/02 00:13:12;;;;;;;12.60;8.65;;;;;;;-150.07;49.74;54949.06;4952180;28;20051;-94
2021/05/02 00:15:39;;;;;;;12.20;8.73;;;;;;;-150.07;50.10;54946.97;4960432;28;20027;-93
2021/05/02 00:18:06;;;;;;;12.60;8.70;;;;;;;-150.07;49.67;54951.16;4961243;28;20082;-89
2021/05/02 00:20:33;;;;;;;13.55;9.70;;;;;;;-150.07;49.63;54951.16;4960957;28;20100;-90
2021/05/02 00:23:04;;;;;;;12.90;9.02;;;;;;;-150.07;49.46;54949.06;4962453;28;20074;-92
2021/05/02 00:25:35;;;;;;;18.48;9.80;;;;;;;-150.07;48.88;54951.16;4987247;28;20038;-95
2021/05/02 00:28:16;;;;;;;11.20;8.35;;;;;;;-150.07;48.70;54946.97;4984699;28;20070;-93
2021/05/02 00:30:46;;;;;;;13.23;8.90;;;;;;;-150.07;49.03;54951.16;4973410;28;20034;-96
2021/05/02 00:33:26;;;;;;;10.77;8.75;;;;;;;-150.07;48.79;54946.97;4964014;28;20074;-96
2021/05/02 00:36:06;;;;;;;11.23;8.90;;;;;;;-150.07;49.29;54949.06;4962432;28;20035;-93
2021/05/02 00:38:47;;;;;;;12.40;8.77;;;;;;;-150.07;49.06;54949.06;4966570;28;20022;-93
2021/05/02 00:41:27;;;;;;;11.73;8.40;;;;;;;-150.07;46.94;54946.97;4977563;28;20039;-94
2021/05/02 00:44:03;;;;;;;13.15;8.10;;;;;;;-150.07;46.97;54951.16;4969452;28;20026;-96
2021/05/02 00:49:53;;;;;;;19.02;8.75;;;;;;;-150.07;47.13;54946.97;4973797;28;20038;-96
2021/05/02 00:52:50;;;;;;;13.00;9.73;;;;;;;-150.07;47.37;54949.06;4961909;28;20035;-90
2021/05/02 00:55:29;;;;;;;12.10;8.82;;;;;;;-150.07;48.45;54951.16;4961328;28;20555;-96
2021/05/02 00:58:04;;;;;;;13.05;9.48;;;;;;;-150.07;49.47;54951.16;4976212;28;20030;-92
2021/05/02 01:00:37;;;;;;;12.85;8.63;;;;;;;-150.07;50.08;54949.06;4943717;29;20122;-92
2021/05/02 01:03:07;;;;;;;15.32;10.10;;;;;;;-150.07;49.41;54951.16;4964092;28;20035;-92
2021/05/02 01:05:34;;;;;;;;;;;;;;;-150.07;47.75;54949.06;4959524;28;20034;-94
2021/05/02 01:08:05;;;;;;;18.98;9.48;;;;;;;-150.07;48.02;54946.97;4962426;28;19925;-94
2021/05/02 01:10:32;;;;;;;16.90;9.65;;;;;;;-150.07;48.99;54949.06;4962036;28;20480;-95
2021/05/02 01:13:05;;;;;;;13.88;9.70;;;;;;;-150.07;49.24;54951.16;4957229;28;20067;-91
2021/05/02 01:15:34;;;;;;;10.63;7.97;;;;;;;-150.07;48.92;54951.16;4959217;28;20090;-94
2021/05/02 01:18:04;;;;;;;10.30;7.72;;;;;;;-150.07;48.56;54951.16;4970149;28;20412;-94
2021/05/02 01:20:36;;;;;;;13.23;8.35;;;;;;;-150.07;47.42;54942.78;4969760;28;20073;-94
2021/05/02 01:23:09;;;;;;;12.07;9.43;;;;;;;-150.07;46.91;54946.97;4980555;28;20030;-93
2021/05/02 01:25:36;;;;;;;13.35;9.35;;;;;;;-150.07;47.19;54951.16;4941330;28;20444;-92
2021/05/02 01:28:04;;;;;;;13.75;8.43;;;;;;;-150.07;46.38;54951.16;4976108;28;20027;-93
2021/05/02 01:30:32;;;;;;;15.25;8.35;;;;;;;-150.07;46.50;54949.06;4965990;28;20038;-91
2021/05/02 01:33:00;;;;;;;;;;;;;;;-150.07;46.91;54949.06;4981054;28;20118;-93
2021/05/02 01:35:27;;;;;;;10.70;7.95;;;;;;;-150.07;45.62;54949.06;4961964;28;19949;-93
2021/05/02 01:37:55;;;;;;;14.93;8.70;;;;;;;-150.07;45.01;54949.06;4961350;28;20460;-91
2021/05/02 01:40:22;;;;;;;16.35;7.90;;;;;;;-150.07;45.21;54949.06;4964438;28;20503;-88
2021/05/02 01:42:49;;;;;;;9.93;7.65;;;;;;;-150.07;44.98;54949.06;4953109;28;20403;-92
2021/05/02 01:45:16;;;;;;;11.00;7.82;;;;;;;-150.07;44.67;54951.16;4961376;28;20107;-95
2021/05/02 01:47:48;;;;;;;13.07;9.02;;;;;;;-150.07;44.09;54946.97;4962629;28;20031;-91
2021/05/02 01:50:16;;;;;;;13.10;8.60;;;;;;;-150.07;44.85;54951.16;4961725;28;20061;-93
2021/05/02 01:52:53;;;;;;;11.68;8.05;;;;;;;-150.07;44.94;54951.16;4961811;28;20023;-91
2021/05/02 01:55:22;;;;;;;10.48;7.47;;;;;;;-150.07;44.15;54946.97;4950492;28;20093;-92
2021/05/02 01:57:51;;;;;;;16.95;8.93;;;;;;;-150.07;45.27;54946.97;4972732;28;20030;-91
2021/05/02 02:00:24;;;;;;;17.88;9.73;;;;;;;-150.07;45.78;54951.16;4961551;28;20089;-94
2021/05/02 02:02:58;;;;;;;13.20;8.70;;;;;;;-150.07;45.28;54946.97;4961225;28;20034;-92
2021/05/02 02:05:26;;;;;;;9.13;8.23;;;;;;;-150.07;45.99;54951.16;4977809;28;20031;-93
2021/05/02 02:07:53;;;;;;;15.10;9.57;;;;;;;-150.07;45.83;54949.06;4963626;28;20495;-88
2021/05/02 02:10:21;;;;;;;11.93;8.10;;;;;;;-150.07;45.36;54951.16;4982983;28;20030;-89
2021/05/02 02:12:49;;;;;;;16.38;10.13;;;;;;;-150.07;45.08;54951.16;4970999;28;20030;-89
2021/05/02 02:15:16;;;;;;;15.10;9.45;;;;;;;-150.07;44.52;54949.06;4977535;28;20036;-89
2021/05/02 02:17:43;;;;;;;27.20;9.68;;;;;;;-150.07;44.32;54949.06;4979731;28;20031;-89
2021/05/02 02:20:11;;;;;;;12.95;9.38;;;;;;;-150.07;44.12;54946.97;4980293;28;20019;-89
2021/05/02 02:22:40;;;;;;;12.85;8.18;;;;;;;-150.07;43.08;54951.16;4979430;28;20018;-87
2021/05/02 02:25:09;;;;;;;14.43;7.53;;;;;;;-150.07;42.80;54946.97;4976785;28;20088;-89
2021/05/02 02:27:37;;;;;;;12.38;9.63;;;;;;;-150.07;42.32;54951.16;4965443;29;20070;-89
2021/05/02 02:30:10;;;;;;;11.95;7.60;;;;;;;-150.07;43.02;54946.97;4958380;28;20090;-89
2021/05/02 02:32:46;;;;;;;11.52;7.45;;;;;;;-150.07;42.83;54949.06;4944817;29;20090;-94
2021/05/02 02:35:18;;;;;;;13.07;7.88;;;;;;;-150.07;42.99;54946.97;4956458;29;20404;-90
2021/05/02 02:37:50;;;;;;;10.50;7.35;;;;;;;-150.07;43.22;54949.06;4942360;29;20023;-93
2021/05/02 02:40:17;;;;;;;9.98;7.90;;;;;;;-150.07;42.91;54946.97;4962802;29;20035;-94
2021/05/02 02:43:04;;;;;;;10.25;6.55;;;;;;;-150.07;43.27;54951.16;4942843;29;20067;-92
2021/05/02 02:45:35;;;;;;;9.25;5.70;;;;;;;-150.07;43.73;54951.16;4940789;29;20032;-91
2021/05/02 02:48:06;;;;;;;11.73;6.18;;;;;;;-150.07;44.03;54951.16;4940331;29;20036;-88
2021/05/02 02:50:33;;;;;;;16.52;6.63;;;;;;;-150.07;44.55;54949.06;4946714;29;20036;-91
2021/05/02 02:53:06;;;;;;;10.90;5.32;;;;;;;-150.07;46.54;54949.06;4948437;29;20066;-93
2021/05/02 02:55:39;;;;;;;9.57;6.35;;;;;;;-150.07;47.36;54949.06;4957981;28;20059;-91
2021/05/02 02:58:06;;;;;;;9.23;6.22;;;;;;;-150.07;47.19;54951.16;4973855;29;20031;-93
2021/05/02 03:00:35;;;;;;;13.57;7.40;;;;;;;-150.07;48.30;54949.06;4975406;29;20017;-91
2021/05/02 03:03:09;;;;;;;11.20;6.82;;;;;;;-150.07;49.60;54951.16;4973883;29;20023;-94
2021/05/02 03:05:38;;;;;;;8.75;6.28;;;;;;;-150.07;49.57;54946.97;4954819;29;20032;-90
2021/05/02 03:08:08;;;;;;;10.85;6.53;;;;;;;-150.07;49.27;54951.16;4971140;28;20037;-95
2021/05/02 03:10:39;;;;;;;10.93;6.70;;;;;;;-150.07;49.85;54949.06;4952515;28;20090;-91
2021/05/02 03:13:07;;;;;;;14.93;6.95;;;;;;;-150.07;49.39;54949.06;4957749;28;20031;-96
2021/05/02 03:15:34;;;;;;;10.50;6.28;;;;;;;-150.07;50.31;54949.06;4967832;28;20033;-91
2021/05/02 03:18:38;;;;;;;8.80;5.35;;;;;;;-150.07;50.53;54949.06;4970489;28;20070;-93
2021/05/02 03:21:19;;;;;;;8.75;5.75;;;;;;;-150.07;49.66;54949.06;4964824;28;20031;-93
2021/05/02 03:23:49;;;;;;;8.25;5.38;;;;;;;-150.07;49.77;54949.06;4962125;28;20026;-90
2021/05/02 03:26:16;;;;;;;;;;;;;;;-150.07;49.18;54951.16;4962302;28;20027;-92
2021/05/02 03:28:59;;;;;;;10.43;5.15;;;;;;;-150.07;50.88;54951.16;4959058;28;19953;-86
2021/05/02 03:31:33;;;;;;;14.30;6.30;;;;;;;-150.07;50.58;54949.06;4955801;28;20029;-92
2021/05/02 03:34:05;;;;;;;10.85;7.13;;;;;;;-150.07;50.77;54949.06;4958378;28;20107;-85
2021/05/02 03:36:37;;;;;;;10.15;5.57;;;;;;;-150.07;50.15;54951.16;4973352;28;20106;-90
2021/05/02 03:39:06;;;;;;;12.13;6.80;;;;;;;-150.07;51.62;54951.16;4980565;28;20026;-94
2021/05/02 03:41:36;;;;;;;13.23;7.43;;;;;;;-150.07;52.26;54946.97;4979549;28;20039;-92
2021/05/02 03:44:11;;;;;;;9.93;5.70;;;;;;;-150.07;52.25;54949.06;4978260;28;20049;-92
2021/05/02 03:46:38;;;;;;;8.27;5.70;;;;;;;-150.07;52.55;54951.16;4963960;28;20400;-89
2021/05/02 03:49:07;;;;;;;10.18;6.10;;;;;;;-150.07;52.02;54951.16;4960354;28;20022;-93
2021/05/02 03:51:41;;;;;;;10.25;6.47;;;;;;;-150.07;52.06;54951.16;4965639;28;20057;-94
2021/05/02 03:54:08;;;;;;;8.95;5.97;;;;;;;-150.07;51.78;54946.97;4955279;28;20031;-92
2021/05/02 03:56:44;;;;;;;14.18;6.50;;;;;;;-150.07;51.65;54949.06;4970763;28;20034;-95
2021/05/02 03:59:17;;;;;;;10.88;6.88;;;;;;;-150.07;52.00;54951.16;4966523;28;20106;-92
2021/05/02 04:01:50;;;;;;;9.75;7.47;;;;;;;-150.07;51.52;54949.06;4963216;28;20130;-91
2021/05/02 04:04:20;;;;;;;9.13;7.18;;;;;;;-150.07;51.78;54946.97;4962069;28;20026;-92
2021/05/02 04:06:50;;;;;;;18.80;6.68;;;;;;;-150.07;51.72;54946.97;4962235;28;20030;-91
2021/05/02 04:09:18;;;;;;;9.93;6.82;;;;;;;-150.07;51.97;54949.06;4961379;28;20050;-89
2021/05/02 04:11:46;;;;;;;18.88;7.25;;;;;;;-150.07;52.00;54949.06;4959488;28;20038;-89
2021/05/02 04:14:15;;;;;;;8.57;6.18;;;;;;;-150.07;51.62;54949.06;4957127;28;20061;-91
2021/05/02 04:16:42;;;;;;;9.48;5.47;;;;;;;-150.07;51.97;54951.16;4958353;28;20472;-93
2021/05/02 04:19:10;;;;;;;8.13;5.35;;;;;;;-150.07;51.31;54951.16;4958081;28;20085;-88
2021/05/02 04:21:38;;;;;;;9.32;5.43;;;;;;;-150.07;51.11;54951.16;4956660;28;20033;-89
2021/05/02 04:24:06;;;;;;;9.35;5.65;;;;;;;-150.07;50.39;54946.97;4973607;28;20030;-89
2021/05/02 04:26:33;;;;;;;6.50;5.28;;;;;;;-150.07;50.17;54951.16;4956685;28;20503;-88
2021/05/02 04:29:00;;;;;;;11.07;6.50;;;;;;;-150.07;50.91;54951.16;4957274;28;20023;-90
2021/05/02 04:31:27;;;;;;;15.85;6.72;;;;;;;-150.07;51.01;54949.06;4960318;28;20066;-88
2021/05/02 04:33:53;;;;;;;10.80;6.13;;;;;;;-150.07;51.99;54949.06;4966501;28;20103;-88
2021/05/02 04:36:20;;;;;;;13.45;7.13;;;;;;;-150.07;51.71;54949.06;4965676;28;20090;-89
2021/05/02 04:38:47;;;;;;;9.65;5.88;;;;;;;-150.07;52.91;54951.16;4977916;28;20476;-91
2021/05/02 04:41:14;;;;;;;8.60;6.40;;;;;;;-150.07;52.43;54949.06;4973688;28;20022;-88
2021/05/02 04:43:41;;;;;;;8.85;6.10;;;;;;;-150.07;52.25;54949.06;4977330;28;20046;-90
2021/05/02 04:46:11;;;;;;;11.45;6.93;;;;;;;-150.07;50.97;54946.97;4977881;28;20030;-89
2021/05/02 04:48:42;;;;;;;15.57;7.45;;;;;;;-150.07;51.16;54951.16;4962792;28;20400;-88
2021/05/02 04:51:11;;;;;;;10.35;6.40;;;;;;;-150.07;50.50;54949.06;4958420;28;20484;-89
2021/05/02 04:53:38;;;;;;;6.57;5.10;;;;;;;-150.07;50.39;54946.97;4955622;28;20043;-89
2021/05/02 04:56:05;;;;;;;9.07;5.88;;;;;;;-150.07;49.58;54949.06;4957085;28;20126;-90
2021/05/02 04:58:32;;;;;;;9.52;5.07;;;;;;;-150.07;48.50;54951.16;4952847;29;20081;-89
2021/05/02 05:00:59;;;;;;;10.75;5.28;;;;;;;-150.07;47.88;54951.16;4951945;29;20027;-91
2021/05/02 05:03:26;;;;;;;9.60;5.00;;;;;;;-150.07;47.54;54949.06;4953405;29;20433;-89
2021/05/02 05:05:52;;;;;;;10.32;4.82;;;;;;;-150.07;48.30;54949.06;4937282;29;20028;-88
2021/05/02 05:08:19;;;;;;;10.52;5.60;;;;;;;-150.07;47.34;54951.16;4937575;29;20027;-88
2021/05/02 05:10:46;;;;;;;9.00;5.60;;;;;;;-150.07;47.08;54951.16;4937296;29;20019;-89
2021/05/02 05:13:13;;;;;;;11.20;5.00;;;;;;;-150.07;46.30;54946.97;4937665;29;20461;-90
2021/05/02 05:15:40;;;;;;;11.10;4.65;;;;;;;-150.07;46.52;54951.16;4937546;29;20081;-88
2021/05/02 05:18:07;;;;;;;10.27;5.03;;;;;;;-150.07;48.04;54951.16;4958066;28;20477;-89
2021/05/02 05:20:34;;;;;;;9.30;5.28;;;;;;;-150.07;47.36;54949.06;4972920;28;20027;-89
2021/05/02 05:23:01;;;;;;;13.70;5.80;;;;;;;-150.07;46.63;54946.97;4959888;28;20023;-92
2021/05/02 05:25:28;;;;;;;13.57;4.47;;;;;;;-150.07;46.91;54949.06;4957959;28;20493;-92
2021/05/02 05:27:55;;;;;;;9.57;5.43;;;;;;;-150.07;49.78;54949.06;4959827;28;20031;-92
2021/05/02 05:30:22;;;;;;;18.70;5.75;;;;;;;-150.07;49.67;54946.97;4975917;28;20038;-88
2021/05/02 05:32:49;;;;;;;15.65;5.35;;;;;;;-150.07;48.79;54951.16;4970732;28;20065;-88
2021/05/02 05:35:15;;;;;;;10.05;5.47;;;;;;;-150.07;48.75;54949.06;4975395;28;20027;-86
2021/05/02 05:37:42;;;;;;;9.98;5.60;;;;;;;-150.07;49.41;54946.97;4971350;28;20027;-87
2021/05/02 05:40:10;;;;;;;9.65;5.40;;;;;;;-150.07;48.99;54949.06;4967187;28;20027;-87
2021/05/02 05:42:37;;;;;;;9.55;5.55;;;;;;;-150.07;50.92;54946.97;4979000;28;20034;-86
2021/05/02 05:45:04;;;;;;;16.27;6.70;;;;;;;-150.07;50.66;54951.16;4961001;28;20062;-88
2021/05/02 05:47:31;;;;;;;13.77;6.47;;;;;;;-150.07;51.10;54949.06;4967686;28;20050;-85
2021/05/02 05:49:57;;;;;;;11.10;7.15;;;;;;;-150.07;51.95;54949.06;4965891;28;20111;-87
2021/05/02 05:52:24;;;;;;;14.63;6.70;;;;;;;-150.07;52.88;54951.16;4958667;28;20508;-89
2021/05/02 05:54:51;;;;;;;7.88;6.20;;;;;;;-150.07;53.13;54949.06;4955118;28;20070;-88
2021/05/02 05:57:18;;;;;;;10.82;5.47;;;;;;;-150.07;52.12;54949.06;4955947;28;20031;-88
2021/05/02 05:59:45;;;;;;;10.10;5.97;;;;;;;-150.07;52.36;54951.16;4955005;28;20125;-87
2021/05/02 06:02:12;;;;;;;9.30;6.03;;;;;;;-150.07;51.73;54951.16;4954266;28;20112;-87
2021/05/02 06:04:38;;;;;;;14.63;6.93;;;;;;;-150.07;52.27;54946.97;4959926;28;20095;-87
2021/05/02 06:07:05;;;;;;;12.95;6.72;;;;;;;-150.07;54.50;54951.16;4957760;28;20030;-87
2021/05/02 06:09:32;;;;;;;17.58;8.40;;;;;;;-150.07;55.60;54946.97;4954605;28;20031;-86
2021/05/02 06:11:59;;;;;;;10.98;7.53;;;;;;;-150.07;55.50;54949.06;4956708;28;20365;-88
2021/05/02 06:14:26;;;;;;;9.65;7.05;;;;;;;-150.07;54.36;54951.16;4973391;28;20043;-86
2021/05/02 06:16:53;;;;;;;12.32;6.47;;;;;;;-150.07;53.28;54951.16;4973638;28;20046;-87
2021/05/02 06:19:20;;;;;;;10.85;7.20;;;;;;;-150.07;53.86;54946.97;4958052;28;20027;-88
2021/05/02 06:21:46;;;;;;;11.43;6.90;;;;;;;-150.07;53.18;54949.06;4956220;28;20035;-87
2021/05/02 06:24:13;;;;;;;8.98;5.72;;;;;;;-150.07;52.74;54951.16;4956342;28;20374;-87
2021/05/02 06:26:40;;;;;;;9.38;5.50;;;;;;;-150.07;52.35;54946.97;4954419;28;20495;-88
2021/05/02 06:29:07;;;;;;;8.30;5.15;;;;;;;-150.07;52.96;54949.06;4957773;28;20030;-86
2021/05/02 06:31:34;;;;;;;9.93;5.70;;;;;;;-150.07;52.49;54949.06;4949891;28;20019;-86
2021/05/02 06:34:00;;;;;;;14.38;6.30;;;;;;;-150.07;52.09;54951.16;4969264;28;20393;-85
2021/05/02 06:36:27;;;;;;;12.02;5.35;;;;;;;-150.07;50.91;54949.06;4956772;28;20027;-86
2021/05/02 06:38:54;;;;;;;9.25;4.68;;;;;;;-150.07;50.00;54951.16;4954149;28;20029;-86
2021/05/02 06:41:21;;;;;;;27.17;5.90;;;;;;;-150.07;49.02;54946.97;4959511;28;20041;-87
2021/05/02 06:43:48;;;;;;;7.28;4.25;;;;;;;-150.07;48.36;54951.16;4961385;28;20021;-87
2021/05/02 06:46:48;;;;;;;9.07;5.82;;;;;;;-150.07;48.79;54951.16;4959561;28;20039;-87
2021/05/02 06:49:08;;;;;;;14.55;4.47;;;;;;;-150.07;49.22;54946.97;4973452;28;20042;-87
2021/05/02 06:51:37;;;;;;;10.38;5.47;;;;;;;-150.07;49.60;54951.16;4959722;28;20101;-86
2021/05/02 06:54:05;;;;;;;11.82;5.32;;;;;;;-150.07;50.15;54949.06;4958268;28;20038;-89
2021/05/02 06:56:33;;;;;;;10.95;5.15;;;;;;;-150.07;50.28;54949.06;4957225;28;20027;-87
2021/05/02 06:59:00;;;;;;;7.63;5.93;;;;;;;-150.07;51.58;54946.97;4956332;28;20710;-85
2021/05/02 07:01:27;;;;;;;13.38;5.53;;;;;;;-150.07;51.25;54944.88;4957215;28;20099;-86
2021/05/02 07:03:54;;;;;;;9.63;5.05;;;;;;;-150.07;51.34;54951.16;4972963;28;20023;-85
2021/05/02 07:06:21;;;;;;;11.38;5.70;;;;;;;-150.07;52.26;54949.06;4961999;28;20027;-86
2021/05/02 07:08:49;;;;;;;14.30;7.13;;;;;;;-150.07;53.14;54951.16;4946802;28;20054;-87
2021/05/02 07:11:16;;;;;;;15.05;6.75;;;;;;;-150.07;53.36;54949.06;4970773;28;20045;-86
2021/05/02 07:13:43;;;;;;;11.00;5.78;;;;;;;-150.07;53.23;54949.06;4956494;28;20055;-90
2021/05/02 07:16:10;;;;;;;12.05;7.20;;;;;;;-150.07;53.17;54951.16;4955971;28;20054;-87
2021/05/02 07:18:39;;;;;;;11.82;6.45;;;;;;;-150.07;53.52;54951.16;4958735;28;20027;-90
2021/05/02 07:21:07;;;;;;;13.88;7.88;;;;;;;-150.07;54.14;54946.97;4962995;28;20027;-88
2021/05/02 07:23:41;;;;;;;12.70;6.70;;;;;;;-150.07;54.51;54946.97;4959583;28;20034;-89
2021/05/02 07:26:08;;;;;;;10.80;6.32;;;;;;;-150.07;54.55;54946.97;4985758;28;20023;-87
2021/05/02 07:28:35;;;;;;;14.50;6.57;;;;;;;-150.07;55.08;54949.06;4998925;28;20754;-91
2021/05/02 07:31:02;;;;;;;7.57;6.25;;;;;;;-150.07;54.70;54951.16;4981642;28;20043;-93
2021/05/02 07:33:29;;;;;;;15.93;7.10;;;;;;;-150.07;54.98;54951.16;4979025;28;20101;-90
2021/05/02 07:35:56;;;;;;;15.05;9.25;;;;;;;-150.07;55.63;54949.06;4974030;28;20031;-90
2021/05/02 07:38:24;;;;;;;9.05;6.68;;;;;;;-150.07;54.83;54951.16;4959024;28;20026;-92
2021/05/02 07:40:51;;;;;;;14.88;7.68;;;;;;;-150.07;54.65;54951.16;4958976;28;20030;-89
2021/05/02 07:43:19;;;;;;;10.38;7.85;;;;;;;-150.07;54.53;54951.16;4958441;28;20030;-90
2021/05/02 07:45:46;;;;;;;11.93;7.75;;;;;;;-150.07;54.70;54951.16;4969491;28;20023;-95
2021/05/02 07:48:36;;;;;;;15.48;6.43;;;;;;;-150.07;55.21;54949.06;4973129;28;20010;-95
2021/05/02 07:51:05;;;;;;;8.30;5.70;;;;;;;-150.07;53.91;54951.16;4979593;28;20038;-95
2021/05/02 07:56:08;;;;;;;9.60;6.85;;;;;;;-150.07;54.97;54949.06;5255141;23;20065;-90
2021/05/02 07:58:35;;;;;;;11.20;8.15;;;;;;;-150.07;56.05;54951.16;4984831;28;20351;-90
2021/05/02 08:01:02;;;;;;;10.30;7.45;;;;;;;-150.07;56.38;54951.16;4977908;28;20441;-90
2021/05/02 08:03:29;;;;;;;12.07;7.85;;;;;;;-150.07;56.90;54946.97;4978164;28;20865;-90
2021/05/02 08:05:55;;;;;;;16.70;8.07;;;;;;;-150.07;57.18;54946.97;4977406;28;20030;-90
2021/05/02 08:08:23;;;;;;;17.13;9.35;;;;;;;-150.07;57.90;54951.16;4977234;28;20037;-91
2021/05/02 08:10:50;;;;;;;14.85;8.25;;;;;;;-150.07;58.01;54949.06;4977255;28;20030;-90
2021/05/02 08:13:18;;;;;;;18.17;10.80;;;;;;;-150.07;58.37;54949.06;4977345;28;20574;-89
2021/05/02 08:15:46;;;;;;;24.17;10.15;;;;;;;-150.07;58.74;54949.06;4977446;28;20511;-83
2021/05/02 08:18:14;;;;;;;16.45;9.13;;;;;;;-150.07;57.98;54951.16;4992901;28;20034;-80
2021/05/02 08:20:41;;;;;;;15.32;9.73;;;;;;;-150.07;57.21;54951.16;4993804;28;20035;-83
2021/05/02 08:23:09;;;;;;;14.55;8.90;;;;;;;-150.07;56.34;54951.16;4974325;28;20034;-84
2021/05/02 08:25:37;;;;;;;14.63;7.93;;;;;;;-150.07;55.59;54951.16;4991603;28;20030;-81
2021/05/02 08:28:05;;;;;;;19.15;9.23;;;;;;;-150.07;55.65;54946.97;4990225;28;20038;-79
2021/05/02 08:30:32;;;;;;;16.52;10.13;;;;;;;-150.07;56.15;54951.16;4991008;28;20041;-79
2021/05/02 08:32:59;;;;;;;17.52;9.98;;;;;;;-150.07;56.88;54946.97;4990666;28;20500;-79
2021/05/02 08:35:26;;;;;;;18.30;9.32;;;;;;;-150.07;56.47;54949.06;4972132;28;20034;-79
2021/05/02 08:37:53;;;;;;;16.25;9.48;;;;;;;-150.07;55.73;54946.97;4973265;28;20489;-80
2021/05/02 08:40:20;;;;;;;18.80;10.10;;;;;;;-150.07;55.60;54949.06;4984831;28;20387;-80
2021/05/02 08:42:47;;;;;;;18.02;10.07;;;;;;;-150.07;55.71;54946.97;4991168;28;20507;-78
2021/05/02 08:45:14;;;;;;;27.23;12.38;;;;;;;-150.07;55.99;54951.16;4987012;28;20410;-79
2021/05/02 08:47:41;;;;;;;24.08;12.38;;;;;;;-150.07;55.13;54946.97;4991292;28;20083;-80
2021/05/02 08:50:10;;;;;;;21.00;10.52;;;;;;;-150.07;54.64;54949.06;4973861;28;20034;-80
2021/05/02 08:52:39;;;;;;;17.20;9.40;;;;;;;-150.07;55.48;54951.16;4973173;28;20034;-80
2021/05/02 08:55:08;;;;;;;16.25;9.27;;;;;;;-150.07;55.38;54946.97;4990554;28;20057;-80
2021/05/02 08:57:35;;;;;;;18.33;10.95;;;;;;;-150.07;55.24;54951.16;4990419;28;20491;-79
2021/05/02 09:00:08;;;;;;;25.27;9.95;;;;;;;-150.07;55.05;54946.97;4985389;28;20141;-79
2021/05/02 09:02:35;;;;;;;11.45;10.27;;;;;;;-150.07;54.57;54951.16;4989778;28;20388;-79
2021/05/02 09:05:04;;;;;;;22.10;12.00;;;;;;;-150.07;54.52;54951.16;4990611;28;20034;-80
2021/05/02 09:07:45;;;;;;;14.80;10.82;;;;;;;-150.07;54.59;54951.16;4990664;28;20033;-78
2021/05/02 09:10:14;;;;;;;18.42;11.63;;;;;;;-150.07;55.02;54949.06;4986210;28;20023;-80
2021/05/02 09:12:43;;;;;;;15.15;10.70;;;;;;;-150.07;54.64;54951.16;4989300;28;20073;-77
2021/05/02 09:15:20;;;;;;;11.77;9.50;;;;;;;-150.07;54.36;54951.16;4988116;28;20057;-78
2021/05/02 09:18:36;;;;;;;16.05;10.15;;;;;;;-150.07;53.73;54951.16;4987276;28;20023;-79
2021/05/02 09:20:52;;;;;;;16.30;8.65;;;;;;;-150.07;53.79;54951.16;4977000;28;20143;-79
2021/05/02 09:23:19;;;;;;;13.65;10.10;;;;;;;-150.07;54.20;54949.06;4981553;28;20161;-79
2021/05/02 09:25:49;;;;;;;22.52;9.18;;;;;;;-150.07;53.53;54949.06;4984470;28;20437;-80
2021/05/02 09:28:19;;;;;;;11.60;9.18;;;;;;;-150.07;53.54;54951.16;4994386;28;20026;-89
2021/05/02 09:31:04;;;;;;;15.80;8.93;;;;;;;-150.07;53.51;54951.16;4978414;28;20030;-90
2021/05/02 09:33:31;;;;;;;24.92;10.40;;;;;;;-150.07;52.65;54951.16;4978410;28;20113;-89
2021/05/02 09:35:58;;;;;;;16.63;10.38;;;;;;;-150.07;53.23;54949.06;4995370;28;20088;-90
2021/05/02 09:38:27;;;;;;;14.25;8.82;;;;;;;-150.07;53.42;54951.16;4981482;28;20034;-89
2021/05/02 09:40:56;;;;;;;18.75;10.82;;;;;;;-150.07;54.32;54951.16;4981177;28;20045;-88
2021/05/02 09:43:32;;;;;;;19.55;10.20;;;;;;;-150.07;54.36;54949.06;4998354;28;20046;-89
2021/05/02 09:46:32;;;;;;;12.00;9.70;;;;;;;-150.07;54.01;54949.06;4987783;28;20031;-90
2021/05/02 09:49:00;;;;;;;17.13;10.20;;;;;;;-150.07;53.55;54949.06;4980504;28;20038;-89
2021/05/02 09:51:31;;;;;;;18.27;11.02;;;;;;;-150.07;53.08;54949.06;4979686;28;20495;-89
2021/05/02 09:54:09;;;;;;;15.77;7.97;;;;;;;-150.07;52.05;54949.06;4979758;28;20033;-90
2021/05/02 09:56:42;;;;;;;14.15;8.80;;;;;;;-150.07;51.16;54951.16;4996289;28;20073;-89
2021/05/02 09:59:24;;;;;;;13.55;10.25;;;;;;;-150.07;51.94;54951.16;4991063;28;20053;-89
2021/05/02 10:02:13;;;;;;;13.65;8.07;;;;;;;-150.07;50.79;54951.16;4979520;28;20038;-89
2021/05/02 10:04:46;;;;;;;18.00;8.48;;;;;;;-150.07;51.24;54949.06;4979616;28;20017;-90
2021/05/02 10:07:15;;;;;;;16.67;8.77;;;;;;;-150.07;50.94;54951.16;4977119;28;20041;-91
2021/05/02 10:09:43;;;;;;;13.50;8.02;;;;;;;-150.07;51.80;54946.97;4977661;28;20018;-91
2021/05/02 10:12:11;;;;;;;16.48;10.15;;;;;;;-150.07;52.91;54949.06;4978624;28;20361;-89
2021/05/02 10:14:40;;;;;;;17.13;11.10;;;;;;;-150.07;52.86;54951.16;4994967;28;20041;-90
2021/05/02 10:17:08;;;;;;;13.15;9.68;;;;;;;-150.07;52.55;54951.16;4972961;28;20512;-91
2021/05/02 10:19:35;;;;;;;22.65;12.05;;;;;;;-150.07;52.38;54949.06;4979576;28;20032;-90
2021/05/02 10:22:02;;;;;;;26.42;10.73;;;;;;;-150.07;51.84;54951.16;4980361;28;20068;-90
2021/05/02 10:24:29;;;;;;;14.73;10.27;;;;;;;-150.07;51.93;54951.16;4979231;28;20476;-89
2021/05/02 10:26:57;;;;;;;10.95;9.38;;;;;;;-150.07;52.58;54951.16;4977760;28;20484;-86
2021/05/02 10:29:28;;;;;;;19.92;10.10;;;;;;;-150.07;52.49;54949.06;4994067;28;20080;-91
2021/05/02 10:32:04;;;;;;;14.50;8.85;;;;;;;-150.07;51.66;54951.16;4978281;28;20042;-94
2021/05/02 10:34:38;;;;;;;14.07;9.38;;;;;;;-150.07;52.01;54951.16;4979624;28;20027;-93
2021/05/02 10:37:24;;;;;;;14.30;9.70;;;;;;;-150.07;53.41;54951.16;4976840;28;20034;-90
2021/05/02 10:39:54;;;;;;;15.73;10.25;;;;;;;-150.07;54.34;54949.06;4993028;28;20065;-89
2021/05/02 10:42:40;;;;;;;16.67;9.52;;;;;;;-150.07;54.88;54951.16;4982348;28;20448;-86
2021/05/02 10:45:39;;;;;;;20.15;11.38;;;;;;;-150.07;56.06;54951.16;4989950;28;20118;-88
2021/05/02 10:48:31;;;;;;;11.18;8.90;;;;;;;-150.07;56.48;54951.16;4963416;28;20042;-88
2021/05/02 10:50:58;;;;;;;15.30;10.50;;;;;;;-150.07;56.08;54951.16;4974178;28;20088;-86
2021/05/02 10:53:27;;;;;;;21.75;10.77;;;;;;;-150.07;56.45;54951.16;4975561;28;20030;-88
2021/05/02 10:56:05;;;;;;;19.80;10.50;;;;;;;-150.07;56.72;54946.97;4993001;28;20050;-87
2021/05/02 10:58:40;;;;;;;19.05;11.00;;;;;;;-150.07;56.45;54951.16;4994941;28;20022;-89
2021/05/02 11:01:08;;;;;;;18.63;9.95;;;;;;;-150.07;55.99;54946.97;5006323;28;20022;-86
2021/05/02 11:03:41;;;;;;;19.75;9.98;;;;;;;-150.07;56.33;54951.16;4975724;28;20128;-87
2021/05/02 11:06:13;;;;;;;24.30;10.15;;;;;;;-150.07;56.13;54951.16;4980444;28;20030;-89
2021/05/02 11:08:50;;;;;;;14.98;10.82;;;;;;;-150.07;55.82;54951.16;5000624;28;20354;-88
2021/05/02 11:11:37;;;;;;;16.85;10.15;;;;;;;-150.07;55.42;54949.06;4998425;28;20037;-87
2021/05/02 11:14:13;;;;;;;12.63;10.25;;;;;;;-150.07;54.59;54951.16;4995316;28;20035;-88
2021/05/02 11:16:48;;;;;;;21.55;10.63;;;;;;;-150.07;54.29;54951.16;4982750;28;20038;-87
2021/05/02 11:19:35;;;;;;;12.45;7.75;;;;;;;-150.07;53.91;54946.97;4978729;28;20030;-89
2021/05/02 11:22:06;;;;;;;13.35;9.02;;;;;;;-150.07;54.29;54951.16;4966339;28;20041;-88
2021/05/02 11:24:40;;;;;;;13.23;9.20;;;;;;;-150.07;55.23;54951.16;4977322;28;20026;-87
2021/05/02 11:29:49;;;;;;;15.43;11.40;;;;;;;-150.07;57.36;54946.97;4995030;28;20065;-88
2021/05/02 11:32:32;;;;;;;17.27;11.68;;;;;;;-150.07;58.30;54951.16;4993835;28;20066;-85